Terminal Aerodrome Forecast
Issued by NWS Cleveland, OH

Home | Current Version | Previous Version | Text Only | Print | Product List | Glossary On
Versions: 1 2 3 4 5 6 7 8 9 10 11 12 13 14 15 16 17
835
FTUS41 KCLE 211730
TAFERI
TAF
KERI 211730Z 2118/2218 04011KT P6SM BKN120
     FM220200 09006KT 5SM -SHRA VCTS OVC025CB
     FM220600 14008KT 5SM BR OVC015
     FM221000 18006KT P6SM OVC020=

USA.gov is the U.S. government's official web portal to all federal, state and local government web resources and services.